Flight Track Log - Related Links

Times and Time Zones

All times are in EDT time to prevent confusion due to time zone crossing. See the ASH3770 flight status page for this flight to view local times or setup timezone preferences in your user account.

Time Position Orientation Groundspeed Altitude Reporting Facility
EDT Latitude Longitude Course Direction KTS MPH feet Rate Location/Type
Thu 05:09:36 PM 38.9667 -77.4333 334° Northwest 158 182 1,400  Level Potomac TRACON
Thu 05:11:40 PM 39.0714 -77.5006 334° Northwest 227 261 5,700 2,590 Climbing Washington Center
Thu 05:12:39 PM 39.1522 -77.5267 346° North 254 292 9,300 3,200 Climbing Washington Center
Thu 05:13:40 PM 39.2267 -77.5503 346° North 264 304 12,100 2,678 Climbing Washington Center
Thu 05:14:40 PM 39.3058 -77.5683 350° North 275 316 14,700 2,085 Climbing Washington Center
Thu 05:15:38 PM 39.3889 -77.5842 352° North 285 328 16,200 1,714 Climbing Washington Center
Thu 05:16:39 PM 39.4756 -77.6267 339° North 309 356 18,100 1,869 Climbing Washington Center
Thu 05:17:40 PM 39.5453 -77.7042 319° Northwest 321 369 20,000 942 Climbing Washington Center
Thu 05:18:40 PM 39.6206 -77.7953 317° Northwest 342 394 20,000  Level Washington Center
Thu 05:20:21 PM 39.7553 -77.9528 318° Northwest 391 450 20,000  Level Cleveland Center
Thu 05:21:21 PM 39.8367 -78.0444 319° Northwest 391 450 20,000  Level Cleveland Center
Thu 05:22:21 PM 39.8853 -78.1725 296° West 391 450 20,000  Level Cleveland Center
Thu 05:23:21 PM 39.9089 -78.3122 282° West 391 450 20,000  Level Cleveland Center
Thu 05:24:21 PM 39.9389 -78.4494 286° West 391 450 20,000 -650 Level Cleveland Center
Thu 05:25:21 PM 39.9661 -78.5839 285° West 391 450 18,700 -1,300 Descending Cleveland Center
Thu 05:26:21 PM 39.9911 -78.6997 286° West 371 427 17,400 -1,400 Descending Cleveland Center
Thu 05:27:21 PM 40.0136 -78.8075 285° West 334 384 15,900 -1,300 Descending Cleveland Center
Thu 05:28:21 PM 40.0342 -78.9100 285° West 313 360 14,800 -1,050 Descending Cleveland Center
Thu 05:29:21 PM 40.0542 -79.0128 284° West 302 348 13,800 -1,000 Descending Cleveland Center
Thu 05:30:21 PM 40.0764 -79.1153 286° West 297 342 12,800 -1,000 Descending Cleveland Center
Thu 05:31:21 PM 40.0967 -79.2206 284° West 292 336 11,800 -1,050 Descending Cleveland Center
Thu 05:32:21 PM 40.1208 -79.3342 286° West 297 342 10,700 -900 Descending Cleveland Center
Thu 05:33:21 PM 40.1428 -79.4397 285° West 297 342 10,000 -350 Descending Cleveland Center
Thu 05:34:21 PM 40.1894 -79.5286 305° West 297 342 10,000  Level Cleveland Center
Thu 05:35:21 PM 40.2403 -79.6122 309° West 290 334 10,000 -50 Level Cleveland Center
Thu 05:36:21 PM 40.2908 -79.6958 308° West 296 341 9,900 -750 Descending Cleveland Center
Thu 05:37:21 PM 40.3375 -79.7742 308° West 291 335 8,500 -1,900 Descending Cleveland Center
Thu 05:38:21 PM 40.3817 -79.8500 307° West 281 323 6,100 -2,000 Descending Cleveland Center
Thu 05:39:21 PM 40.4239 -79.9231 307° West 263 303 4,500 -1,050 Descending Cleveland Center
Thu 05:40:21 PM 40.4533 -79.9719 308° West 221 254 4,000 -450 Descending Cleveland Center
Thu 05:41:21 PM 40.4744 -80.0236 298° West 188 216 3,600 -550 Descending Cleveland Center
Thu 05:42:21 PM 40.4831 -80.0864 280° West 172 198 2,900 -700 Descending Cleveland Center

Login

Don't have an account? Register now (free) for customized features, flight alerts, and more!